• Join FlightAware (Why Join?)
  • Login
  • US Flag 
04:50AM EDT


 

Airport Tracker/Info


-or-


 

Live Flight TrackerFlight Track Log ✈ N42HN ✈ 05-Jul-2013 ✈ KLZU - KFLL

Flight Track Log - Related Links

Times and Time Zones

All times are in EDT time to prevent confusion due to time zone crossing. See the N42HN flight status page for this flight to view local times or setup timezone preferences in your user account.

Time Position Orientation Groundspeed Altitude Reporting Facility
EDT Latitude Longitude Course Direction KTS MPH feet Rate Location/Type
01:28PM 33.9333 -83.9167 165° South 205 236 5,800  Level Atlanta TRACON
01:30PM 33.8086 -83.8764 165° South 244 281 11,900 3,180 Climbing Atlanta Center
01:31PM 33.7439 -83.8339 151° Southeast 256 295 15,200 2,820 Climbing Atlanta Center
01:32PM 33.6689 -83.8192 171° South 261 300 17,600 1,800 Climbing Atlanta Center
01:33PM 33.5936 -83.8019 169° South 291 335 18,800 1,380 Climbing Atlanta Center
01:34PM 33.4956 -83.7872 173° South 333 383 20,400 1,860 Climbing Atlanta Center
01:35PM 33.3994 -83.7675 170° South 354 407 22,600 2,040 Climbing Atlanta Center
01:36PM 33.3056 -83.7481 170° South 349 402 24,500 1,800 Climbing Atlanta Center
01:37PM 33.2136 -83.7236 167° South 349 402 26,200 1,440 Climbing Atlanta Center
01:38PM 33.1175 -83.6817 160° South 360 414 27,400 1,200 Climbing Atlanta Center
01:39PM 33.0172 -83.6425 162° South 366 421 28,600 1,200 Climbing Atlanta Center
01:40PM 32.9167 -83.6008 161° South 376 433 29,900 1,260 Climbing Atlanta Center
01:41PM 32.8186 -83.5594 160° South 376 433 31,200 1,200 Climbing Atlanta Center
01:42PM 32.7139 -83.5156 161° South 382 440 32,300 960 Climbing Atlanta Center
01:43PM 32.5433 -83.4422 160° South 404 465 33,700 780 Climbing Jacksonville Center
01:44PM 32.4347 -83.3997 162° South 404 465 34,400 720 Climbing Jacksonville Center
01:45PM 32.3264 -83.3547 161° South 404 465 35,200 840 Climbing Jacksonville Center
01:46PM 32.2200 -83.3100 160° South 409 471 36,100 900 Climbing Jacksonville Center
01:47PM 32.1117 -83.2656 161° South 409 471 37,000 900 Climbing Jacksonville Center
01:48PM 32.0011 -83.2208 161° South 409 471 37,900 780 Climbing Jacksonville Center
01:49PM 31.8947 -83.1764 160° South 409 471 38,600 660 Climbing Jacksonville Center
01:50PM 31.7883 -83.1344 161° South 409 471 39,300 600 Climbing Jacksonville Center
01:51PM 31.6778 -83.0928 162° South 408 470 39,800 300 Climbing Jacksonville Center
01:52PM 31.5694 -83.0461 160° South 408 470 40,000 60 Climbing Jacksonville Center
01:53PM 31.4692 -83.0094 163° South 413 475 40,000  Level Jacksonville Center
01:54PM 31.3544 -82.9631 161° South 425 489 40,000  Level Jacksonville Center
01:55PM 31.2417 -82.9119 159° South 431 496 40,000  Level Jacksonville Center
01:56PM 31.1247 -82.8683 162° South 437 503 40,000  Level Jacksonville Center
01:57PM 31.0078 -82.8272 163° South 442 509 40,000  Level Jacksonville Center
01:58PM 30.8908 -82.7789 160° South 442 509 40,000 -120 Level Jacksonville Center
01:59PM 30.7592 -82.7258 161° South 447 514 39,800 -540 Descending Jacksonville Center
02:00PM 30.6358 -82.6922 167° South 452 520 39,000 -420 Descending Jacksonville Center
02:01PM 30.5272 -82.6708 170° South 446 513 39,000  Level Jacksonville Center
02:02PM 30.4042 -82.6542 173° South 451 519 39,000  Level Jacksonville Center
02:03PM 30.2622 -82.6378 174° South 451 519 39,000  Level Jacksonville Center
02:04PM 30.1367 -82.6211 173° South 457 526 39,000  Level Jacksonville Center
02:05PM 30.0386 -82.6047 172° South 457 526 39,000  Level Jacksonville Center
02:06PM 29.9008 -82.5764 170° South 457 526 39,000  Level Jacksonville Center
02:07PM 29.7753 -82.5481 169° South 462 532 39,000  Level Jacksonville Center
02:08PM 29.6481 -82.5317 174° South 467 537 39,000  Level Jacksonville Center
02:09PM 29.5081 -82.5131 173° South 467 537 39,000  Level Jacksonville Center
02:10PM 29.3889 -82.4731 164° South 467 537 39,000  Level Jacksonville Center
02:11PM 29.2822 -82.3950 147° Southeast 447 514 39,000  Level Jacksonville Center
02:12PM 29.1775 -82.3169 147° Southeast 447 514 39,000  Level Jacksonville Center
02:13PM 29.0667 -82.2417 149° Southeast 459 528 39,000  Level Jacksonville Center
02:16PM 28.8236 -82.0681 148° Southeast 468 539 39,000  Level Miami Center
02:17PM 28.7269 -81.9711 139° Southeast 461 531 39,000  Level Miami Center
02:18PM 28.6347 -81.8653 135° Southeast 466 536 39,000  Level Miami Center
02:19PM 28.5381 -81.7642 137° Southeast 471 542 39,000  Level Miami Center
02:20PM 28.4453 -81.6750 140° Southeast 484 557 39,000  Level Miami Center
02:21PM 28.3419 -81.5811 141° Southeast 484 557 39,000  Level Miami Center
02:22PM 28.2319 -81.4986 147° Southeast 479 551 39,000  Level Miami Center
02:23PM 28.1131 -81.4281 152° Southeast 479 551 39,000  Level Miami Center
02:24PM 28.0008 -81.3528 149° Southeast 474 545 39,000 -900 Level Miami Center
02:25PM 27.8739 -81.2750 152° Southeast 468 539 37,300 -1,800 Descending Miami Center
02:26PM 27.7672 -81.2075 151° Southeast 473 544 35,500 -2,280 Descending Miami Center
02:27PM 27.6483 -81.1350 152° Southeast 479 551 32,800 -2,700 Descending Miami Center
02:28PM 27.5358 -81.0606 150° Southeast 479 551 30,100 -2,400 Descending Miami Center
02:29PM 27.4250 -80.9933 152° Southeast 463 533 28,100 -2,400 Descending Miami Center
02:30PM 27.3206 -80.9242 150° Southeast 446 513 25,300 -2,460 Descending Miami Center
02:31PM 27.2178 -80.8644 153° Southeast 429 494 23,200 -2,160 Descending Miami Center
02:32PM 27.1192 -80.8053 152° Southeast 416 479 21,000 -2,100 Descending Miami Center
02:33PM 27.0269 -80.7461 150° Southeast 396 456 19,100 -1,860 Descending Miami Center
02:34PM 26.9306 -80.6822 149° Southeast 375 432 17,300 -2,040 Descending Miami Center
02:35PM 26.8464 -80.6283 150° Southeast 360 414 15,100 -2,100 Descending Miami Center
02:36PM 26.7619 -80.5814 154° Southeast 346 398 13,100 -1,800 Descending Miami Center
02:37PM 26.6858 -80.5325 150° Southeast 346 398 11,600 -1,080 Descending Miami Center
02:38PM 26.5953 -80.4786 152° Southeast 337 388 11,000 -720 Descending Miami Center
02:39PM 26.5211 -80.4322 151° Southeast 340 391 10,200 -1,440 Descending Miami Center
02:40PM 26.4406 -80.4019 161° South 272 313 8,100 -1,140 Descending Miami Center
02:41PM 26.3783 -80.3817 164° South 268 308 8,000 -960 Descending Miami Center
02:42PM 26.3017 -80.3583 165° South 260 299 6,200 -1,740 Descending Miami Center
02:43PM 26.2414 -80.3403 165° South 260 299 4,600 -1,680 Descending Miami Center
02:44PM 26.1628 -80.3150 164° South 229 264 2,800 -1,380 Descending Miami Center
02:45PM 26.1303 -80.2769 134° Southeast 226 260 1,900 -840 Descending Miami Center
02:46PM 26.0958 -80.2297 129° Southeast 208 239 1,300 -780 Descending Miami Center
02:47PM 26.0778 -80.1922 118° Southeast 171 197 400 -900 Descending Miami Center
02:49PM 26.0667 -80.1500 156° South  Level FlightAware Approximate